Time;durP1;ratioP1;P1;durP2;ratioP2;P2;SDS_P1;SDS_P2;PMS_P1;PMS_P2;Temp;Humidity;BMP_temperature;BMP_pressure;BME280_temperature;BME280_humidity;BME280_pressure;Samples;Min_cycle;Max_cycle;Signal;HPM_P1;HPM_P2
2022/09/03 00:00:38;;;;;;;;;;;16.40;99.90;;;;;;4208050;28;19931;-61
2022/09/03 00:02:44;;;;;;;;;;;16.30;99.90;;;;;;4215789;28;20399;-61
2022/09/03 00:05:25;;;;;;;;;;;16.40;99.90;;;;;;4198824;28;19974;-61
2022/09/03 00:07:36;;;;;;;;;;;16.40;99.90;;;;;;4179039;28;20346;-62
2022/09/03 00:09:47;;;;;;;;;;;16.40;99.90;;;;;;4180308;28;19935;-61
2022/09/03 00:11:57;;;;;;;;;;;16.50;99.90;;;;;;4182437;28;19944;-61
2022/09/03 00:14:17;;;;;;;;;;;16.50;99.90;;;;;;4213680;28;20022;-61
2022/09/03 00:16:22;;;;;;;;;;;16.30;99.90;;;;;;4215362;28;19977;-61
2022/09/03 00:18:27;;;;;;;;;;;16.30;99.90;;;;;;4215248;28;20011;-61
2022/09/03 00:20:33;;;;;;;;;;;16.30;99.90;;;;;;4215139;28;20462;-61
2022/09/03 00:22:40;;;;;;;;;;;16.30;99.90;;;;;;4209007;28;19932;-61
2022/09/03 00:24:44;;;;;;;;;;;16.20;99.90;;;;;;4198602;28;19960;-61
2022/09/03 00:26:53;;;;;;;;;;;16.20;99.90;;;;;;4213046;28;19928;-61
2022/09/03 00:29:02;;;;;;;;;;;16.30;99.90;;;;;;4217466;28;19928;-61
2022/09/03 00:31:38;;;;;;;;;;;16.30;99.90;;;;;;4214766;28;20454;-61
2022/09/03 00:33:42;;;;;;;;;;;16.30;99.90;;;;;;4198548;28;20441;-61
2022/09/03 00:35:46;;;;;;;;;;;16.20;99.90;;;;;;4207849;28;19928;-61
2022/09/03 00:37:52;;;;;;;;;;;16.30;99.90;;;;;;4214802;28;19928;-61
2022/09/03 00:40:02;;;;;;;;;;;16.30;99.90;;;;;;4215020;28;19967;-61
2022/09/03 00:42:16;;;;;;;;;;;16.30;99.90;;;;;;4213347;28;20022;-61
2022/09/03 00:44:30;;;;;;;;;;;16.30;99.90;;;;;;4214814;28;19924;-60
2022/09/03 00:46:34;;;;;;;;;;;16.20;99.90;;;;;;4214484;28;19931;-61
2022/09/03 00:48:56;;;;;;;;;;;16.10;99.90;;;;;;4214905;28;20046;-61
2022/09/03 00:51:27;;;;;;;;;;;16.10;99.90;;;;;;4214554;28;19971;-61
2022/09/03 00:53:39;;;;;;;;;;;16.00;99.90;;;;;;4210025;28;19928;-60
2022/09/03 00:56:07;;;;;;;;;;;16.10;99.90;;;;;;4197461;28;19932;-61
2022/09/03 00:58:24;;;;;;;;;;;16.10;99.90;;;;;;4208243;28;19931;-60
2022/09/03 01:00:28;;;;;;;;;;;16.10;99.90;;;;;;4214528;28;19924;-60
2022/09/03 01:02:37;;;;;;;;;;;16.00;99.90;;;;;;4214661;28;19953;-61
2022/09/03 01:04:48;;;;;;;;;;;16.10;99.90;;;;;;4214273;28;20308;-61
2022/09/03 01:07:13;;;;;;;;;;;16.10;99.90;;;;;;4214459;28;19925;-61
2022/09/03 01:09:16;;;;;;;;;;;16.00;99.90;;;;;;4214582;28;20453;-61
2022/09/03 01:11:29;;;;;;;;;;;16.00;99.90;;;;;;4212969;28;20178;-61
2022/09/03 01:13:42;;;;;;;;;;;16.10;99.90;;;;;;4214449;28;20015;-61
2022/09/03 01:16:04;;;;;;;;;;;16.10;99.90;;;;;;4213387;28;19936;-61
2022/09/03 01:18:20;;;;;;;;;;;16.10;99.90;;;;;;4197473;28;19979;-61
2022/09/03 01:20:44;;;;;;;;;;;16.20;99.90;;;;;;4207337;28;19924;-61
2022/09/03 01:22:49;;;;;;;;;;;16.20;99.90;;;;;;4214319;28;20009;-61
2022/09/03 01:25:10;;;;;;;;;;;16.10;99.90;;;;;;4219954;28;19924;-61
2022/09/03 01:27:31;;;;;;;;;;;16.10;99.90;;;;;;4217665;28;19924;-61
2022/09/03 01:29:37;;;;;;;;;;;16.10;99.90;;;;;;4214334;28;19924;-61
2022/09/03 01:31:52;;;;;;;;;;;16.00;99.90;;;;;;4214063;28;20387;-61
2022/09/03 01:34:05;;;;;;;;;;;16.00;99.90;;;;;;4198037;28;19935;-61
2022/09/03 01:36:11;;;;;;;;;;;15.90;99.90;;;;;;4197412;28;19964;-61
2022/09/03 01:38:29;;;;;;;;;;;16.00;99.90;;;;;;4197653;28;19971;-61
2022/09/03 01:40:43;;;;;;;;;;;16.00;99.90;;;;;;4197607;28;19970;-61
2022/09/03 01:42:48;;;;;;;;;;;16.00;99.90;;;;;;4197309;28;20023;-61
2022/09/03 01:45:11;;;;;;;;;;;16.00;99.90;;;;;;4197300;28;19928;-61
2022/09/03 01:47:21;;;;;;;;;;;15.90;99.90;;;;;;4203299;28;19976;-60
2022/09/03 01:49:40;;;;;;;;;;;16.00;99.90;;;;;;4213948;28;20013;-61
2022/09/03 01:51:45;;;;;;;;;;;16.00;99.90;;;;;;4214058;28;19924;-61
2022/09/03 01:53:57;;;;;;;;;;;16.00;99.90;;;;;;4214106;28;19934;-61
2022/09/03 01:56:12;;;;;;;;;;;15.90;99.90;;;;;;4214142;28;19924;-61
2022/09/03 01:58:20;;;;;;;;;;;15.90;99.90;;;;;;4214378;28;19946;-61
2022/09/03 02:00:25;;;;;;;;;;;15.80;99.90;;;;;;4214144;28;19924;-60
2022/09/03 02:02:27;;;;;;;;;;;15.70;99.90;;;;;;4213686;28;19951;-60
2022/09/03 02:04:32;;;;;;;;;;;15.60;99.90;;;;;;4213981;28;19966;-60
2022/09/03 02:06:38;;;;;;;;;;;15.60;99.90;;;;;;4213949;28;19927;-61
2022/09/03 02:08:45;;;;;;;;;;;15.60;99.90;;;;;;4213925;28;19946;-61
2022/09/03 02:10:51;;;;;;;;;;;15.60;99.90;;;;;;4213980;28;20348;-61
2022/09/03 02:12:55;;;;;;;;;;;15.60;99.90;;;;;;4213558;28;20022;-60
2022/09/03 02:15:03;;;;;;;;;;;15.60;99.90;;;;;;4213955;28;19928;-61
2022/09/03 02:17:06;;;;;;;;;;;15.60;99.90;;;;;;4213715;28;19935;-61
2022/09/03 02:19:11;;;;;;;;;;;15.70;99.90;;;;;;4213896;28;19925;-60
2022/09/03 02:21:31;;;;;;;;;;;15.70;99.90;;;;;;4222208;28;19977;-61
2022/09/03 02:23:33;;;;;;;;;;;15.70;99.90;;;;;;4230612;28;19923;-61
2022/09/03 02:25:38;;;;;;;;;;;15.60;99.90;;;;;;4230744;27;19923;-61
2022/09/03 02:27:42;;;;;;;;;;;15.70;99.90;;;;;;4230609;28;20373;-61
2022/09/03 02:29:45;;;;;;;;;;;15.70;99.90;;;;;;4218275;28;19928;-61
2022/09/03 02:31:53;;;;;;;;;;;15.60;99.90;;;;;;4216932;28;19923;-61
2022/09/03 02:33:55;;;;;;;;;;;15.60;99.90;;;;;;4216711;28;20002;-60
2022/09/03 02:35:58;;;;;;;;;;;15.60;99.90;;;;;;4217268;28;20027;-61
2022/09/03 02:38:08;;;;;;;;;;;15.70;99.90;;;;;;4217043;28;19928;-61
2022/09/03 02:40:10;;;;;;;;;;;15.70;99.90;;;;;;4217052;28;19996;-61
2022/09/03 02:42:14;;;;;;;;;;;15.70;99.90;;;;;;4216858;28;19932;-61
2022/09/03 02:44:25;;;;;;;;;;;15.80;99.90;;;;;;4216932;28;20391;-61
2022/09/03 02:46:37;;;;;;;;;;;15.80;99.90;;;;;;4216649;28;19932;-60
2022/09/03 02:48:39;;;;;;;;;;;15.80;99.90;;;;;;4216653;28;19935;-60
2022/09/03 02:50:56;;;;;;;;;;;15.80;99.90;;;;;;4216610;28;20337;-60
2022/09/03 02:53:00;;;;;;;;;;;15.80;99.90;;;;;;4215230;28;19961;-61
2022/09/03 02:55:03;;;;;;;;;;;15.80;99.90;;;;;;4216361;28;19928;-60
2022/09/03 02:57:06;;;;;;;;;;;15.70;99.90;;;;;;4215823;28;19924;-60
2022/09/03 02:59:09;;;;;;;;;;;15.70;99.90;;;;;;4199640;28;19925;-60
2022/09/03 03:01:12;;;;;;;;;;;15.80;99.90;;;;;;4208581;28;19932;-60
2022/09/03 03:03:23;;;;;;;;;;;15.70;99.90;;;;;;4216597;28;19931;-60
2022/09/03 03:05:46;;;;;;;;;;;15.60;99.90;;;;;;4216414;28;19978;-60
2022/09/03 03:07:48;;;;;;;;;;;15.50;99.90;;;;;;4216344;28;20027;-60
2022/09/03 03:09:52;;;;;;;;;;;15.50;99.90;;;;;;4216262;28;20033;-60
2022/09/03 03:11:56;;;;;;;;;;;15.60;99.90;;;;;;4216795;28;19924;-60
2022/09/03 03:13:59;;;;;;;;;;;15.60;99.90;;;;;;4207023;28;19924;-60
2022/09/03 03:16:05;;;;;;;;;;;15.60;99.90;;;;;;4199563;28;19939;-60
2022/09/03 03:18:10;;;;;;;;;;;15.60;99.90;;;;;;4223512;28;20422;-60
2022/09/03 03:20:12;;;;;;;;;;;15.60;99.90;;;;;;4225473;28;19924;-60
2022/09/03 03:22:14;;;;;;;;;;;15.60;99.90;;;;;;4216373;28;19963;-61
2022/09/03 03:24:18;;;;;;;;;;;15.50;99.90;;;;;;4216202;28;19924;-60
2022/09/03 03:26:23;;;;;;;;;;;15.40;99.90;;;;;;4216080;28;19970;-60
2022/09/03 03:28:26;;;;;;;;;;;15.40;99.90;;;;;;4216531;28;19977;-60
2022/09/03 03:30:32;;;;;;;;;;;15.30;99.90;;;;;;4215788;28;19928;-61
2022/09/03 03:32:38;;;;;;;;;;;15.30;99.90;;;;;;4210992;28;19929;-60
2022/09/03 03:34:41;;;;;;;;;;;15.20;99.90;;;;;;4199345;28;20144;-60
2022/09/03 03:36:52;;;;;;;;;;;15.20;99.90;;;;;;4213079;28;19973;-60
2022/09/03 03:38:55;;;;;;;;;;;15.20;99.90;;;;;;4215874;28;19934;-60
2022/09/03 03:40:58;;;;;;;;;;;15.10;99.90;;;;;;4215800;28;19936;-60
2022/09/03 03:43:01;;;;;;;;;;;15.10;99.90;;;;;;4216029;28;20022;-60
2022/09/03 03:45:05;;;;;;;;;;;15.10;99.90;;;;;;4215854;28;20011;-59
2022/09/03 03:47:07;;;;;;;;;;;15.20;99.90;;;;;;4215479;28;19932;-60
2022/09/03 03:49:10;;;;;;;;;;;15.20;99.90;;;;;;4214488;28;19924;-60
2022/09/03 03:51:12;;;;;;;;;;;15.20;99.90;;;;;;4215959;28;19981;-61
2022/09/03 03:53:14;;;;;;;;;;;15.20;99.90;;;;;;4216138;28;19935;-60
2022/09/03 03:55:22;;;;;;;;;;;15.20;99.90;;;;;;4215657;28;19928;-60
2022/09/03 03:57:24;;;;;;;;;;;15.20;99.90;;;;;;4215598;28;19935;-60
2022/09/03 03:59:28;;;;;;;;;;;15.20;99.90;;;;;;4215644;28;19932;-60
2022/09/03 04:01:30;;;;;;;;;;;15.20;99.90;;;;;;4215689;28;19938;-60
2022/09/03 04:03:33;;;;;;;;;;;15.20;99.90;;;;;;4215508;28;19931;-60
2022/09/03 04:05:39;;;;;;;;;;;15.20;99.90;;;;;;4214270;28;20071;-60
2022/09/03 04:07:47;;;;;;;;;;;15.20;99.90;;;;;;4215573;28;19968;-60
2022/09/03 04:09:51;;;;;;;;;;;15.20;99.90;;;;;;4215403;28;19957;-60
2022/09/03 04:11:54;;;;;;;;;;;15.20;99.90;;;;;;4215250;28;19924;-60
2022/09/03 04:13:56;;;;;;;;;;;15.20;99.90;;;;;;4219849;28;20365;-60
2022/09/03 04:16:11;;;;;;;;;;;15.20;99.90;;;;;;4215482;28;19938;-60
2022/09/03 04:18:14;;;;;;;;;;;15.20;99.90;;;;;;4215207;28;19928;-60
2022/09/03 04:20:19;;;;;;;;;;;15.10;99.90;;;;;;4215664;28;20687;-60
2022/09/03 04:22:22;;;;;;;;;;;15.10;99.90;;;;;;4215176;28;20365;-60
2022/09/03 04:24:25;;;;;;;;;;;15.00;99.90;;;;;;4215353;28;20397;-60
2022/09/03 04:26:49;;;;;;;;;;;14.90;99.90;;;;;;4214955;28;19928;-60
2022/09/03 04:28:52;;;;;;;;;;;14.80;99.90;;;;;;4215337;28;20302;-60
2022/09/03 04:30:59;;;;;;;;;;;14.80;99.90;;;;;;4215074;28;20375;-60
2022/09/03 04:33:04;;;;;;;;;;;14.90;99.90;;;;;;4215082;28;19928;-60
2022/09/03 04:35:06;;;;;;;;;;;15.00;99.90;;;;;;4215132;28;20445;-60
2022/09/03 04:37:09;;;;;;;;;;;15.00;99.90;;;;;;4215069;28;20011;-60
2022/09/03 04:39:15;;;;;;;;;;;15.00;99.90;;;;;;4214832;28;19963;-60
2022/09/03 04:41:26;;;;;;;;;;;15.10;99.90;;;;;;4218450;28;19973;-60
2022/09/03 04:43:29;;;;;;;;;;;15.00;99.90;;;;;;4214756;28;20022;-60
2022/09/03 04:45:32;;;;;;;;;;;15.00;99.90;;;;;;4214649;28;20357;-60
2022/09/03 04:47:37;;;;;;;;;;;14.90;99.90;;;;;;4214679;28;19924;-60
2022/09/03 04:49:40;;;;;;;;;;;14.80;99.90;;;;;;4214728;28;19943;-59
2022/09/03 04:51:44;;;;;;;;;;;14.80;99.90;;;;;;4215132;28;19960;-60
2022/09/03 04:53:48;;;;;;;;;;;14.80;99.90;;;;;;4197539;28;19924;-60
2022/09/03 04:55:54;;;;;;;;;;;14.80;99.90;;;;;;4206050;28;20435;-60
2022/09/03 04:57:57;;;;;;;;;;;14.80;99.90;;;;;;4214864;28;19946;-60
2022/09/03 05:00:09;;;;;;;;;;;14.80;99.90;;;;;;4214863;28;19928;-60
2022/09/03 05:02:14;;;;;;;;;;;14.80;99.90;;;;;;4214915;28;19924;-59
2022/09/03 05:04:20;;;;;;;;;;;14.80;99.90;;;;;;4214579;28;19934;-60
2022/09/03 05:06:24;;;;;;;;;;;14.90;99.90;;;;;;4214584;28;20299;-59
2022/09/03 05:08:27;;;;;;;;;;;14.90;99.90;;;;;;4214686;28;19925;-60
2022/09/03 05:10:29;;;;;;;;;;;14.90;99.90;;;;;;4225337;28;19928;-60
2022/09/03 05:12:33;;;;;;;;;;;14.90;99.90;;;;;;4217564;27;19928;-60
2022/09/03 05:14:36;;;;;;;;;;;14.80;99.90;;;;;;4214274;28;20027;-58
2022/09/03 05:16:38;;;;;;;;;;;14.90;99.90;;;;;;4214661;28;20031;-60
2022/09/03 05:18:43;;;;;;;;;;;15.00;99.90;;;;;;4214371;28;19931;-60
2022/09/03 05:20:47;;;;;;;;;;;15.10;99.90;;;;;;4214379;28;19924;-60
2022/09/03 05:22:49;;;;;;;;;;;15.10;99.90;;;;;;4214674;28;20394;-60
2022/09/03 05:24:51;;;;;;;;;;;15.10;99.90;;;;;;4214303;28;19947;-60
2022/09/03 05:26:55;;;;;;;;;;;15.00;99.90;;;;;;4214369;28;20383;-60
2022/09/03 05:29:00;;;;;;;;;;;15.00;99.90;;;;;;4214698;28;20027;-60
2022/09/03 05:31:04;;;;;;;;;;;15.00;99.90;;;;;;4213907;28;19928;-60
2022/09/03 05:33:10;;;;;;;;;;;15.10;99.90;;;;;;4214402;28;20034;-60
2022/09/03 05:35:12;;;;;;;;;;;15.10;99.90;;;;;;4214240;28;19928;-60
2022/09/03 05:37:15;;;;;;;;;;;15.20;99.90;;;;;;4214039;28;19924;-60
2022/09/03 05:39:18;;;;;;;;;;;15.10;99.90;;;;;;4214232;28;19931;-60
2022/09/03 05:41:20;;;;;;;;;;;15.20;99.90;;;;;;4214183;28;19928;-60
2022/09/03 05:43:23;;;;;;;;;;;15.30;99.90;;;;;;4214092;28;19982;-60
2022/09/03 05:45:26;;;;;;;;;;;15.30;99.90;;;;;;4213879;28;19935;-59
2022/09/03 05:47:32;;;;;;;;;;;15.30;99.90;;;;;;4213588;28;19928;-60
2022/09/03 05:49:34;;;;;;;;;;;15.30;99.90;;;;;;4214400;28;19930;-60
2022/09/03 05:51:41;;;;;;;;;;;15.30;99.90;;;;;;4213908;28;19981;-60
2022/09/03 05:53:45;;;;;;;;;;;15.30;99.90;;;;;;4214151;28;19923;-60
2022/09/03 05:55:55;;;;;;;;;;;15.30;99.90;;;;;;4214041;28;19924;-60
2022/09/03 05:58:00;;;;;;;;;;;15.40;99.90;;;;;;4212615;28;20016;-60
2022/09/03 06:00:03;;;;;;;;;;;15.60;99.90;;;;;;4203179;28;19928;-60
2022/09/03 06:02:05;;;;;;;;;;;15.60;99.90;;;;;;4197145;28;19950;-59
2022/09/03 06:04:09;;;;;;;;;;;15.70;99.90;;;;;;4196578;28;19954;-60
2022/09/03 06:06:13;;;;;;;;;;;15.70;99.90;;;;;;4209605;28;19932;-60
2022/09/03 06:08:37;;;;;;;;;;;15.80;99.90;;;;;;4230354;28;19928;-60
2022/09/03 06:10:40;;;;;;;;;;;15.80;99.90;;;;;;4230478;28;20299;-60
2022/09/03 06:12:48;;;;;;;;;;;15.80;99.90;;;;;;4230765;28;19927;-60
2022/09/03 06:14:51;;;;;;;;;;;15.90;99.90;;;;;;4230879;28;20391;-59
2022/09/03 06:16:54;;;;;;;;;;;16.00;99.90;;;;;;4230776;27;19927;-60
2022/09/03 06:18:59;;;;;;;;;;;16.00;99.90;;;;;;4230563;27;19928;-60
2022/09/03 06:21:07;;;;;;;;;;;16.00;99.90;;;;;;4229530;28;19985;-60
2022/09/03 06:23:10;;;;;;;;;;;15.90;99.90;;;;;;4230869;28;19924;-60
2022/09/03 06:25:14;;;;;;;;;;;16.00;99.90;;;;;;4230729;27;20291;-59
2022/09/03 06:27:20;;;;;;;;;;;16.00;99.90;;;;;;4230541;28;19977;-59
2022/09/03 06:29:24;;;;;;;;;;;16.00;99.90;;;;;;4230741;27;19928;-60
2022/09/03 06:31:27;;;;;;;;;;;16.10;99.90;;;;;;4230366;28;19924;-60
2022/09/03 06:33:31;;;;;;;;;;;16.10;99.90;;;;;;4230257;27;19928;-60
2022/09/03 06:35:34;;;;;;;;;;;16.10;99.90;;;;;;4230881;27;19924;-60
2022/09/03 06:37:42;;;;;;;;;;;16.10;99.90;;;;;;4230775;28;19970;-60
2022/09/03 06:39:49;;;;;;;;;;;16.00;99.90;;;;;;4230471;27;19998;-60
2022/09/03 06:41:52;;;;;;;;;;;16.00;99.90;;;;;;4230220;28;19930;-60
2022/09/03 06:44:01;;;;;;;;;;;16.10;99.90;;;;;;4230163;27;20026;-60
2022/09/03 06:46:12;;;;;;;;;;;16.10;99.90;;;;;;4230686;27;19931;-60
2022/09/03 06:48:14;;;;;;;;;;;16.10;99.90;;;;;;4215044;28;19924;-60
2022/09/03 06:50:17;;;;;;;;;;;16.10;99.90;;;;;;4213687;28;19924;-60
2022/09/03 06:52:19;;;;;;;;;;;16.10;99.90;;;;;;4213459;28;20018;-59
2022/09/03 06:54:25;;;;;;;;;;;16.10;99.90;;;;;;4211273;28;19924;-61
2022/09/03 06:56:28;;;;;;;;;;;16.00;99.90;;;;;;4212273;28;19928;-61
2022/09/03 06:58:32;;;;;;;;;;;16.00;99.90;;;;;;4213618;28;20020;-60
2022/09/03 07:00:34;;;;;;;;;;;16.10;99.90;;;;;;4213643;28;19932;-61
2022/09/03 07:02:57;;;;;;;;;;;16.20;99.90;;;;;;4222402;28;20412;-61
2022/09/03 07:04:59;;;;;;;;;;;16.20;99.90;;;;;;4226525;28;20391;-61
2022/09/03 07:07:04;;;;;;;;;;;16.10;99.90;;;;;;4213561;28;19928;-61
2022/09/03 07:09:11;;;;;;;;;;;16.10;99.90;;;;;;4208087;28;20027;-61
2022/09/03 07:11:16;;;;;;;;;;;16.00;99.90;;;;;;4198604;28;19932;-62
2022/09/03 07:13:20;;;;;;;;;;;15.90;99.90;;;;;;4213329;28;19924;-61
2022/09/03 07:15:25;;;;;;;;;;;15.90;99.90;;;;;;4210613;28;19950;-61
2022/09/03 07:17:27;;;;;;;;;;;15.90;99.90;;;;;;4200095;28;19928;-61
2022/09/03 07:19:29;;;;;;;;;;;15.90;99.90;;;;;;4216704;28;19970;-62
2022/09/03 07:21:33;;;;;;;;;;;15.90;99.90;;;;;;4216154;28;19967;-61
2022/09/03 07:23:36;;;;;;;;;;;15.90;99.90;;;;;;4210096;28;19928;-61
2022/09/03 07:25:39;;;;;;;;;;;15.90;99.90;;;;;;4200118;28;19967;-61
2022/09/03 07:27:51;;;;;;;;;;;15.90;99.90;;;;;;4212867;28;19969;-61
2022/09/03 07:29:53;;;;;;;;;;;15.90;99.90;;;;;;4216827;28;19927;-62
2022/09/03 07:31:56;;;;;;;;;;;15.90;99.90;;;;;;4214624;28;19928;-61
2022/09/03 07:34:04;;;;;;;;;;;15.90;99.90;;;;;;4211714;28;19935;-61
2022/09/03 07:36:13;;;;;;;;;;;15.90;99.90;;;;;;4211686;28;19932;-61
2022/09/03 07:38:17;;;;;;;;;;;16.10;99.90;;;;;;4214397;28;19973;-61
2022/09/03 07:40:22;;;;;;;;;;;16.10;99.90;;;;;;4215606;28;19931;-62
2022/09/03 07:42:29;;;;;;;;;;;16.10;99.90;;;;;;4215998;28;19928;-61
2022/09/03 07:44:31;;;;;;;;;;;16.10;99.90;;;;;;4215734;28;19924;-60
2022/09/03 07:46:35;;;;;;;;;;;16.10;99.90;;;;;;4215393;28;20299;-61
2022/09/03 07:48:40;;;;;;;;;;;16.20;99.90;;;;;;4215959;28;19924;-60
2022/09/03 07:50:43;;;;;;;;;;;16.20;99.90;;;;;;4214588;28;20023;-60
2022/09/03 07:52:46;;;;;;;;;;;16.30;99.90;;;;;;4214826;28;19963;-61
2022/09/03 07:54:58;;;;;;;;;;;16.30;99.90;;;;;;4215853;28;19924;-61
2022/09/03 07:57:01;;;;;;;;;;;16.40;99.90;;;;;;4214855;28;20342;-60
2022/09/03 07:59:07;;;;;;;;;;;16.40;99.90;;;;;;4211131;28;19924;-61
2022/09/03 08:01:31;;;;;;;;;;;16.40;99.90;;;;;;4215274;28;19924;-61
2022/09/03 08:03:34;;;;;;;;;;;16.40;99.90;;;;;;4205573;28;19923;-61
2022/09/03 08:05:36;;;;;;;;;;;16.50;99.90;;;;;;4209914;28;19928;-61
2022/09/03 08:07:38;;;;;;;;;;;16.50;99.90;;;;;;4214132;28;19959;-61
2022/09/03 08:09:42;;;;;;;;;;;16.60;99.90;;;;;;4215526;28;20391;-60
2022/09/03 08:11:55;;;;;;;;;;;16.60;99.90;;;;;;4205362;28;20404;-61
2022/09/03 08:14:01;;;;;;;;;;;16.60;99.90;;;;;;4213665;28;20376;-61
2022/09/03 08:16:04;;;;;;;;;;;16.40;99.90;;;;;;4208127;28;19969;-61
2022/09/03 08:18:07;;;;;;;;;;;16.50;99.90;;;;;;4214833;28;19927;-61
2022/09/03 08:20:09;;;;;;;;;;;16.40;99.90;;;;;;4214510;28;19954;-61
2022/09/03 08:22:11;;;;;;;;;;;16.40;99.90;;;;;;4215254;28;19928;-61
2022/09/03 08:24:15;;;;;;;;;;;16.50;99.90;;;;;;4214375;28;20414;-61
2022/09/03 08:26:31;;;;;;;;;;;16.60;99.90;;;;;;4211455;28;19928;-62
2022/09/03 08:28:34;;;;;;;;;;;16.60;99.90;;;;;;4208102;28;20011;-62
2022/09/03 08:30:38;;;;;;;;;;;16.60;99.90;;;;;;4207462;28;21357;-62
2022/09/03 08:32:40;;;;;;;;;;;16.60;99.90;;;;;;4203424;28;19958;-61
2022/09/03 08:34:42;;;;;;;;;;;16.60;99.90;;;;;;4213004;28;19924;-62
2022/09/03 08:36:51;;;;;;;;;;;16.80;99.90;;;;;;4220790;28;19935;-62
2022/09/03 08:39:03;;;;;;;;;;;16.80;99.90;;;;;;4209254;28;19985;-62
2022/09/03 08:41:10;;;;;;;;;;;16.80;99.90;;;;;;4208192;28;19924;-62
2022/09/03 08:43:17;;;;;;;;;;;16.80;99.90;;;;;;4208911;28;19931;-62
2022/09/03 08:45:22;;;;;;;;;;;16.80;99.90;;;;;;4209444;28;19939;-63
2022/09/03 08:47:24;;;;;;;;;;;16.90;99.90;;;;;;4211418;28;19943;-62
2022/09/03 08:49:36;;;;;;;;;;;16.90;99.90;;;;;;4205746;28;20413;-62
2022/09/03 08:51:39;;;;;;;;;;;17.00;99.90;;;;;;4212560;28;20475;-62
2022/09/03 08:53:46;;;;;;;;;;;16.90;99.90;;;;;;4207250;28;20473;-62
2022/09/03 08:56:02;;;;;;;;;;;16.70;99.90;;;;;;4226425;27;20028;-62
2022/09/03 08:58:24;;;;;;;;;;;16.70;99.90;;;;;;4210307;28;22021;-62
2022/09/03 09:00:40;;;;;;;;;;;16.80;99.90;;;;;;4210770;28;19924;-62
2022/09/03 09:03:10;;;;;;;;;;;16.90;99.90;;;;;;4207466;28;19979;-62
2022/09/03 09:05:16;;;;;;;;;;;17.00;99.90;;;;;;4206741;28;19956;-62
2022/09/03 09:07:24;;;;;;;;;;;17.00;99.90;;;;;;4208395;28;19928;-62
2022/09/03 09:09:50;;;;;;;;;;;17.00;99.90;;;;;;4208969;28;20401;-62
2022/09/03 09:11:55;;;;;;;;;;;17.00;99.90;;;;;;4191800;28;19925;-62
2022/09/03 09:14:00;;;;;;;;;;;17.00;99.90;;;;;;4202224;27;19975;-62
2022/09/03 09:16:04;;;;;;;;;;;17.10;99.90;;;;;;4211540;28;19928;-62
2022/09/03 09:18:16;;;;;;;;;;;17.10;99.90;;;;;;4204899;28;19932;-62
2022/09/03 09:20:23;;;;;;;;;;;17.00;99.90;;;;;;4202509;28;19947;-62
2022/09/03 09:22:31;;;;;;;;;;;16.90;99.90;;;;;;4200007;28;20383;-62
2022/09/03 09:24:54;;;;;;;;;;;17.00;99.90;;;;;;4213930;28;19975;-62
2022/09/03 09:26:58;;;;;;;;;;;17.10;99.90;;;;;;4212231;28;19924;-63
2022/09/03 09:29:06;;;;;;;;;;;17.10;99.90;;;;;;4206638;28;19963;-63
2022/09/03 09:31:14;;;;;;;;;;;17.10;99.90;;;;;;4197377;28;19924;-63
2022/09/03 09:33:17;;;;;;;;;;;17.20;99.90;;;;;;4197311;28;20039;-63
2022/09/03 09:35:19;;;;;;;;;;;17.20;99.90;;;;;;4208466;28;19926;-61
2022/09/03 09:37:23;;;;;;;;;;;17.30;99.90;;;;;;4204930;28;20363;-63
2022/09/03 09:39:27;;;;;;;;;;;17.30;99.90;;;;;;4201338;28;19943;-62
2022/09/03 09:41:29;;;;;;;;;;;17.30;99.90;;;;;;4204812;28;19924;-63
2022/09/03 09:43:35;;;;;;;;;;;17.40;99.90;;;;;;4206512;28;19928;-63
2022/09/03 09:45:39;;;;;;;;;;;17.40;99.90;;;;;;4208744;28;20294;-63
2022/09/03 09:47:41;;;;;;;;;;;17.40;99.90;;;;;;4203171;28;20391;-63
2022/09/03 09:49:44;;;;;;;;;;;17.50;99.90;;;;;;4208004;28;20149;-63
2022/09/03 09:52:02;;;;;;;;;;;17.50;99.90;;;;;;4226670;28;19977;-63
2022/09/03 09:54:18;;;;;;;;;;;17.40;99.90;;;;;;4202250;28;20087;-63
2022/09/03 09:56:22;;;;;;;;;;;17.50;99.90;;;;;;4205979;28;19935;-62
2022/09/03 09:58:27;;;;;;;;;;;17.40;99.90;;;;;;4204864;28;20013;-63
2022/09/03 10:00:33;;;;;;;;;;;17.50;99.90;;;;;;4210744;27;20388;-64
2022/09/03 10:02:36;;;;;;;;;;;17.50;99.90;;;;;;4214185;28;19954;-63
2022/09/03 10:04:42;;;;;;;;;;;17.50;99.90;;;;;;4213223;28;19942;-63
2022/09/03 10:06:53;;;;;;;;;;;17.60;99.90;;;;;;4202173;28;19929;-63
2022/09/03 10:09:06;;;;;;;;;;;17.60;99.90;;;;;;4211849;28;19928;-63
2022/09/03 10:11:09;;;;;;;;;;;17.60;99.90;;;;;;4197207;28;19924;-63
2022/09/03 10:13:16;;;;;;;;;;;17.60;99.90;;;;;;4204299;28;19928;-63
2022/09/03 10:15:42;;;;;;;;;;;17.60;99.90;;;;;;4209237;28;20307;-63
2022/09/03 10:18:00;;;;;;;;;;;17.70;99.90;;;;;;4208005;28;19928;-63
2022/09/03 10:20:31;;;;;;;;;;;17.70;99.90;;;;;;4196962;28;19935;-63
2022/09/03 10:22:40;;;;;;;;;;;17.70;99.90;;;;;;4207322;28;19977;-62
2022/09/03 10:25:01;;;;;;;;;;;17.60;99.90;;;;;;4212182;28;20337;-62
2022/09/03 10:27:06;;;;;;;;;;;17.60;99.90;;;;;;4212920;28;19934;-62
2022/09/03 10:29:09;;;;;;;;;;;17.60;99.90;;;;;;4213509;28;19929;-62
2022/09/03 10:31:18;;;;;;;;;;;17.70;99.90;;;;;;4216604;28;19928;-62
2022/09/03 10:33:27;;;;;;;;;;;17.90;99.90;;;;;;4213693;28;19947;-61
2022/09/03 10:35:32;;;;;;;;;;;17.90;99.90;;;;;;4212967;28;19928;-62
2022/09/03 10:37:34;;;;;;;;;;;17.90;99.90;;;;;;4213513;28;19976;-61
2022/09/03 10:39:57;;;;;;;;;;;17.80;99.90;;;;;;4212756;28;20011;-61
2022/09/03 10:42:23;;;;;;;;;;;17.90;99.90;;;;;;4211118;28;19932;-60
2022/09/03 10:44:34;;;;;;;;;;;18.10;99.90;;;;;;4209004;28;19958;-61
2022/09/03 10:47:28;;;;;;;;;;;18.20;99.90;;;;;;4204224;28;19925;-61
2022/09/03 10:49:42;;;;;;;;;;;18.20;99.90;;;;;;4186101;28;19932;-60
2022/09/03 10:52:03;;;;;;;;;;;18.20;99.90;;;;;;4189860;28;19939;-61
2022/09/03 10:54:08;;;;;;;;;;;18.20;99.90;;;;;;4190007;28;19967;-61
2022/09/03 10:56:16;;;;;;;;;;;18.20;99.90;;;;;;4212417;28;19924;-61
2022/09/03 10:58:19;;;;;;;;;;;18.10;99.90;;;;;;4203859;28;20011;-61
2022/09/03 11:00:22;;;;;;;;;;;18.10;99.90;;;;;;4211257;28;19932;-61
2022/09/03 11:02:47;;;;;;;;;;;18.20;99.90;;;;;;4211981;28;19939;-61
2022/09/03 11:05:01;;;;;;;;;;;18.30;99.90;;;;;;4195923;28;19928;-61
2022/09/03 11:07:06;;;;;;;;;;;18.20;99.90;;;;;;4210461;28;20418;-61
2022/09/03 11:09:20;;;;;;;;;;;18.30;99.90;;;;;;4208033;28;19954;-61
2022/09/03 11:11:35;;;;;;;;;;;18.20;99.90;;;;;;4211917;28;19924;-61
2022/09/03 11:13:43;;;;;;;;;;;18.10;99.90;;;;;;4215665;28;19923;-61
2022/09/03 11:15:58;;;;;;;;;;;18.20;99.90;;;;;;4211504;28;19969;-62
2022/09/03 11:18:11;;;;;;;;;;;18.20;99.90;;;;;;4204811;28;19932;-62
2022/09/03 11:20:19;;;;;;;;;;;18.20;99.90;;;;;;4210568;28;19932;-62
2022/09/03 11:22:22;;;;;;;;;;;18.10;99.90;;;;;;4208130;28;19932;-62
2022/09/03 11:24:27;;;;;;;;;;;18.00;99.90;;;;;;4211965;28;19932;-62
2022/09/03 11:26:34;;;;;;;;;;;17.90;99.90;;;;;;4212970;28;19924;-62
2022/09/03 11:28:36;;;;;;;;;;;18.00;99.90;;;;;;4213652;28;19928;-61
2022/09/03 11:30:48;;;;;;;;;;;18.00;99.90;;;;;;4215703;28;19927;-62
2022/09/03 11:33:01;;;;;;;;;;;17.90;99.90;;;;;;4212788;28;19931;-62
2022/09/03 11:35:26;;;;;;;;;;;17.80;99.90;;;;;;4208699;28;19924;-63
2022/09/03 11:37:29;;;;;;;;;;;17.80;99.90;;;;;;4204778;28;19925;-63
2022/09/03 11:39:34;;;;;;;;;;;17.70;99.90;;;;;;4214351;28;19935;-63
2022/09/03 11:41:36;;;;;;;;;;;17.60;99.90;;;;;;4214285;28;20015;-63
2022/09/03 11:43:42;;;;;;;;;;;17.70;99.90;;;;;;4220486;28;20391;-63
2022/09/03 11:45:45;;;;;;;;;;;17.60;99.90;;;;;;4216787;28;19928;-63
2022/09/03 11:47:48;;;;;;;;;;;17.70;99.90;;;;;;4209181;28;19928;-65
2022/09/03 11:50:03;;;;;;;;;;;17.50;99.90;;;;;;4204504;28;19929;-65
2022/09/03 11:52:08;;;;;;;;;;;17.60;99.90;;;;;;4206294;28;20398;-64
2022/09/03 11:54:13;;;;;;;;;;;17.50;99.90;;;;;;4210916;28;19931;-64
2022/09/03 11:56:17;;;;;;;;;;;17.60;99.90;;;;;;4212981;28;19932;-65
2022/09/03 11:58:23;;;;;;;;;;;17.60;99.90;;;;;;4210267;28;19937;-64
2022/09/03 12:00:30;;;;;;;;;;;17.50;99.90;;;;;;4214141;28;19924;-66
2022/09/03 12:02:44;;;;;;;;;;;17.50;99.90;;;;;;4213111;28;20045;-64
2022/09/03 12:05:07;;;;;;;;;;;17.40;99.90;;;;;;4213439;28;20014;-65
2022/09/03 12:07:33;;;;;;;;;;;17.50;99.90;;;;;;4211001;28;19928;-64
2022/09/03 12:09:52;;;;;;;;;;;17.60;99.90;;;;;;4207533;28;19939;-65
2022/09/03 12:12:05;;;;;;;;;;;17.70;99.90;;;;;;4211030;28;19925;-65
2022/09/03 12:14:11;;;;;;;;;;;17.70;99.90;;;;;;4209993;28;20019;-66
2022/09/03 12:16:33;;;;;;;;;;;17.80;99.90;;;;;;4212591;28;19973;-65
2022/09/03 12:18:36;;;;;;;;;;;17.80;99.90;;;;;;4212459;28;19928;-66
2022/09/03 12:20:44;;;;;;;;;;;17.70;99.90;;;;;;4212582;28;20336;-66
2022/09/03 12:22:46;;;;;;;;;;;17.70;99.90;;;;;;4209342;28;20353;-66